createdAt,value
2023-02-24T00:00:17.274Z,3.42
2023-02-24T00:01:17.675Z,3.42
2023-02-24T00:02:17.369Z,3.37
2023-02-24T00:03:17.759Z,3.40
2023-02-24T00:04:17.243Z,3.37
2023-02-24T00:05:17.260Z,3.36
2023-02-24T00:06:17.197Z,3.34
2023-02-24T00:07:17.217Z,3.34
2023-02-24T00:08:17.166Z,3.37
2023-02-24T00:09:17.166Z,3.37
2023-02-24T00:10:17.153Z,3.41
2023-02-24T00:11:17.197Z,3.41
2023-02-24T00:12:17.121Z,3.41
2023-02-24T00:13:17.112Z,3.41
2023-02-24T00:14:17.093Z,3.40
2023-02-24T00:15:17.078Z,3.37
2023-02-24T00:16:17.285Z,3.37
2023-02-24T00:17:17.242Z,3.40
2023-02-24T00:18:17.035Z,3.41
2023-02-24T00:19:17.053Z,3.44
2023-02-24T00:20:17.007Z,3.48
2023-02-24T00:21:16.999Z,3.48
2023-02-24T00:22:17.000Z,3.51
2023-02-24T00:23:16.969Z,3.55
2023-02-24T00:24:16.998Z,3.55
2023-02-24T00:25:16.942Z,3.55
2023-02-24T00:26:16.964Z,3.55
2023-02-24T00:27:16.912Z,3.56
2023-02-24T00:28:16.901Z,3.55
2023-02-24T00:29:16.935Z,3.51
2023-02-24T00:30:16.908Z,3.51
2023-02-24T00:31:17.041Z,3.50
2023-02-24T00:32:17.077Z,3.50
2023-02-24T00:33:16.849Z,3.47
2023-02-24T00:34:16.828Z,3.45
2023-02-24T00:35:16.852Z,3.44
2023-02-24T00:36:16.811Z,3.44
2023-02-24T00:37:16.828Z,3.42
2023-02-24T00:38:16.782Z,3.44
2023-02-24T00:39:16.789Z,3.44
2023-02-24T00:40:16.787Z,3.44
2023-02-24T00:41:16.746Z,3.42
2023-02-24T00:42:16.753Z,3.42
2023-02-24T00:43:16.710Z,3.41
2023-02-24T00:44:16.702Z,3.40
2023-02-24T00:45:16.685Z,3.42
2023-02-24T00:46:16.732Z,3.41
2023-02-24T00:47:16.692Z,3.42
2023-02-24T00:48:16.675Z,3.41
2023-02-24T00:49:16.648Z,3.32
2023-02-24T00:50:16.653Z,3.25
2023-02-24T00:51:16.644Z,3.21
2023-02-24T00:52:16.593Z,3.21
2023-02-24T00:53:16.587Z,3.18
2023-02-24T00:54:16.585Z,3.14
2023-02-24T00:55:16.594Z,3.14
2023-02-24T00:56:16.554Z,3.16
2023-02-24T00:57:16.547Z,3.13
2023-02-24T00:58:16.524Z,3.16
2023-02-24T00:59:16.524Z,3.14
2023-02-24T01:00:16.706Z,3.16
2023-02-24T01:01:16.488Z,3.18
2023-02-24T01:02:16.464Z,3.16
2023-02-24T01:03:16.455Z,3.14
2023-02-24T01:04:16.498Z,3.14
2023-02-24T01:05:16.472Z,3.14
2023-02-24T01:06:16.406Z,3.14
2023-02-24T01:07:16.399Z,3.16
2023-02-24T01:08:16.394Z,3.13
2023-02-24T01:09:16.396Z,3.14
2023-02-24T01:10:16.372Z,3.16
2023-02-24T01:11:16.376Z,3.16
2023-02-24T01:12:16.470Z,3.16
2023-02-24T01:13:16.380Z,3.16
2023-02-24T01:14:16.327Z,3.11
2023-02-24T01:15:16.295Z,3.07
2023-02-24T01:16:16.356Z,3.07
2023-02-24T01:17:16.376Z,3.08
2023-02-24T01:18:16.258Z,3.07
2023-02-24T01:19:16.263Z,3.04
2023-02-24T01:20:16.255Z,3.07
2023-02-24T01:21:16.219Z,3.04
2023-02-24T01:22:16.209Z,3.03
2023-02-24T01:23:16.214Z,3.01
2023-02-24T01:24:16.180Z,2.98
2023-02-24T01:25:16.160Z,2.97
2023-02-24T01:26:16.168Z,2.95
2023-02-24T01:27:16.141Z,2.98
2023-02-24T01:28:16.188Z,2.98
2023-02-24T01:29:16.111Z,2.98
2023-02-24T01:30:16.605Z,3.01
2023-02-24T01:31:16.167Z,3.01
2023-02-24T01:32:16.354Z,3.03
2023-02-24T01:33:16.244Z,3.04
2023-02-24T01:34:16.064Z,3.04
2023-02-24T01:35:16.068Z,3.04
2023-02-24T01:36:16.026Z,3.05
2023-02-24T01:37:16.022Z,3.07
2023-02-24T01:38:16.062Z,3.10
2023-02-24T01:39:16.019Z,3.13
2023-02-24T01:40:15.969Z,3.11
2023-02-24T01:41:15.959Z,3.13
2023-02-24T01:42:15.938Z,3.13
2023-02-24T01:43:15.930Z,3.13
2023-02-24T01:44:15.945Z,3.14
2023-02-24T01:45:15.913Z,3.14
2023-02-24T01:46:15.930Z,3.16
2023-02-24T01:47:15.921Z,3.16
2023-02-24T01:48:15.894Z,3.14
2023-02-24T01:49:15.852Z,3.14
2023-02-24T01:50:15.839Z,3.13
2023-02-24T01:51:15.839Z,3.13
2023-02-24T01:52:15.838Z,3.13
2023-02-24T01:53:15.832Z,3.13
2023-02-24T01:54:15.838Z,3.13
2023-02-24T01:55:15.823Z,3.14
2023-02-24T01:56:15.774Z,3.18
2023-02-24T01:57:15.747Z,3.19
2023-02-24T01:58:15.753Z,3.21
2023-02-24T01:59:15.723Z,3.28
2023-02-24T02:00:15.738Z,3.29
2023-02-24T02:01:15.696Z,3.36
2023-02-24T02:02:15.843Z,3.40
2023-02-24T02:03:15.694Z,3.42
2023-02-24T02:04:15.668Z,3.40
2023-02-24T02:05:15.642Z,3.41
2023-02-24T02:06:15.651Z,3.42
2023-02-24T02:07:15.622Z,3.44
2023-02-24T02:08:15.616Z,3.47
2023-02-24T02:09:15.674Z,3.48
2023-02-24T02:10:15.763Z,3.48
2023-02-24T02:11:15.568Z,3.51
2023-02-24T02:12:15.567Z,3.50
2023-02-24T02:13:15.539Z,3.53
2023-02-24T02:14:15.566Z,3.55
2023-02-24T02:15:15.548Z,3.56
2023-02-24T02:16:15.552Z,3.58
2023-02-24T02:17:15.496Z,3.60
2023-02-24T02:18:15.484Z,3.60
2023-02-24T02:19:15.480Z,3.62
2023-02-24T02:20:15.489Z,3.62
2023-02-24T02:21:15.442Z,3.65
2023-02-24T02:22:15.428Z,3.66
2023-02-24T02:23:15.425Z,3.66
2023-02-24T02:24:15.411Z,3.69
2023-02-24T02:25:15.390Z,3.68
2023-02-24T02:26:15.396Z,3.69
2023-02-24T02:27:15.356Z,3.69
2023-02-24T02:28:15.341Z,3.73
2023-02-24T02:29:15.339Z,3.73
2023-02-24T02:30:15.313Z,3.76
2023-02-24T02:31:15.469Z,3.76
2023-02-24T02:32:15.442Z,3.77
2023-02-24T02:33:15.294Z,3.78
2023-02-24T02:34:15.273Z,3.81
2023-02-24T02:35:15.254Z,3.83
2023-02-24T02:36:15.267Z,3.84
2023-02-24T02:37:15.230Z,3.84
2023-02-24T02:38:15.367Z,3.84
2023-02-24T02:39:15.197Z,3.84
2023-02-24T02:40:15.197Z,3.83
2023-02-24T02:41:15.195Z,3.84
2023-02-24T02:42:15.156Z,3.83
2023-02-24T02:43:15.154Z,3.83
2023-02-24T02:44:15.147Z,3.86
2023-02-24T02:45:15.129Z,3.87
2023-02-24T02:46:15.197Z,3.87
2023-02-24T02:47:15.128Z,3.91
2023-02-24T02:48:15.090Z,3.94
2023-02-24T02:49:15.075Z,3.95
2023-02-24T02:50:15.055Z,3.96
2023-02-24T02:51:15.033Z,3.99
2023-02-24T02:52:15.058Z,4.01
2023-02-24T02:53:15.038Z,4.02
2023-02-24T02:54:15.010Z,4.05
2023-02-24T02:55:15.004Z,4.02
2023-02-24T02:56:14.982Z,3.99
2023-02-24T02:57:14.955Z,3.98
2023-02-24T02:58:14.983Z,3.96
2023-02-24T02:59:14.931Z,3.96
2023-02-24T03:00:14.928Z,3.98
2023-02-24T03:01:14.948Z,3.99
2023-02-24T03:02:15.053Z,4.01
2023-02-24T03:03:14.908Z,4.01
2023-02-24T03:04:14.858Z,4.04
2023-02-24T03:05:14.849Z,4.02
2023-02-24T03:06:14.835Z,4.01
2023-02-24T03:07:14.820Z,4.01
2023-02-24T03:08:14.828Z,4.05
2023-02-24T03:09:14.840Z,4.04
2023-02-24T03:10:14.788Z,4.04
2023-02-24T03:11:14.782Z,4.02
2023-02-24T03:12:14.779Z,4.01
2023-02-24T03:13:14.775Z,4.01
2023-02-24T03:14:14.750Z,4.01
2023-02-24T03:15:14.716Z,4.02
2023-02-24T03:16:14.819Z,4.01
2023-02-24T03:17:14.693Z,4.02
2023-02-24T03:18:14.687Z,4.02
2023-02-24T03:19:14.701Z,4.01
2023-02-24T03:20:14.653Z,4.02
2023-02-24T03:21:14.643Z,4.02
2023-02-24T03:22:14.699Z,4.01
2023-02-24T03:23:14.701Z,4.04
2023-02-24T03:24:14.596Z,4.02
2023-02-24T03:25:14.668Z,4.01
2023-02-24T03:26:14.575Z,4.01
2023-02-24T03:27:14.556Z,4.01
2023-02-24T03:28:14.581Z,4.01
2023-02-24T03:29:14.534Z,3.98
2023-02-24T03:30:14.518Z,3.96
2023-02-24T03:31:14.550Z,3.96
2023-02-24T03:32:14.673Z,3.95
2023-02-24T03:33:14.518Z,3.94
2023-02-24T03:34:14.467Z,3.95
2023-02-24T03:35:14.461Z,3.94
2023-02-24T03:36:14.445Z,3.94
2023-02-24T03:37:14.461Z,3.94
2023-02-24T03:38:14.433Z,3.94
2023-02-24T03:39:14.401Z,3.95
2023-02-24T03:40:14.397Z,3.94
2023-02-24T03:41:14.378Z,3.96
2023-02-24T03:42:14.418Z,3.98
2023-02-24T03:43:16.283Z,3.96
2023-02-24T03:44:14.341Z,3.95
2023-02-24T03:45:14.337Z,3.94
2023-02-24T03:46:14.342Z,3.94
2023-02-24T03:47:14.320Z,3.92
2023-02-24T03:48:14.286Z,3.94
2023-02-24T03:49:14.289Z,3.94
2023-02-24T03:50:14.296Z,3.94
2023-02-24T03:51:14.249Z,3.94
2023-02-24T03:52:14.232Z,3.95
2023-02-24T03:53:14.217Z,3.95
2023-02-24T03:54:14.252Z,3.94
2023-02-24T03:55:14.214Z,3.94
2023-02-24T03:56:14.181Z,3.94
2023-02-24T03:57:14.164Z,3.94
2023-02-24T03:58:14.196Z,3.94
2023-02-24T03:59:14.147Z,3.91
2023-02-24T04:00:14.121Z,3.92
2023-02-24T04:01:14.141Z,3.92
2023-02-24T04:02:14.144Z,3.95
2023-02-24T04:03:14.115Z,3.94
2023-02-24T04:04:14.079Z,3.92
2023-02-24T04:05:14.061Z,3.92
2023-02-24T04:06:14.109Z,3.91
2023-02-24T04:07:14.047Z,3.91
2023-02-24T04:08:14.020Z,3.88
2023-02-24T04:09:14.020Z,3.86
2023-02-24T04:10:14.002Z,3.87
2023-02-24T04:11:14.005Z,3.86
2023-02-24T04:12:14.106Z,3.88
2023-02-24T04:13:13.967Z,3.87
2023-02-24T04:14:13.936Z,3.88
2023-02-24T04:15:13.913Z,3.88
2023-02-24T04:16:13.974Z,3.91
2023-02-24T04:17:13.912Z,3.88
2023-02-24T04:18:13.914Z,3.87
2023-02-24T04:19:13.914Z,3.86
2023-02-24T04:20:13.871Z,3.88
2023-02-24T04:21:13.877Z,3.87
2023-02-24T04:22:13.861Z,3.87
2023-02-24T04:23:13.825Z,3.84
2023-02-24T04:24:13.844Z,3.84
2023-02-24T04:25:13.917Z,3.83
2023-02-24T04:26:13.793Z,3.81
2023-02-24T04:27:13.797Z,3.81
2023-02-24T04:28:13.755Z,3.81
2023-02-24T04:29:13.752Z,3.80
2023-02-24T04:30:13.734Z,3.77
2023-02-24T04:31:13.858Z,3.76
2023-02-24T04:32:13.987Z,3.73
2023-02-24T04:33:13.693Z,3.69
2023-02-24T04:34:13.684Z,3.68
2023-02-24T04:35:13.702Z,3.65
2023-02-24T04:36:13.668Z,3.65
2023-02-24T04:37:13.641Z,3.62
2023-02-24T04:38:13.621Z,3.62
2023-02-24T04:39:13.609Z,3.63
2023-02-24T04:40:13.636Z,3.63
2023-02-24T04:41:13.622Z,3.63
2023-02-24T04:42:13.579Z,3.63
2023-02-24T04:43:13.561Z,3.63
2023-02-24T04:44:13.567Z,3.65
2023-02-24T04:45:13.535Z,3.65
2023-02-24T04:46:13.614Z,3.66
2023-02-24T04:47:13.519Z,3.65
2023-02-24T04:48:13.529Z,3.65
2023-02-24T04:49:13.482Z,3.65
2023-02-24T04:50:13.462Z,3.65
2023-02-24T04:51:13.493Z,3.65
2023-02-24T04:52:13.470Z,3.65
2023-02-24T04:53:13.436Z,3.66
2023-02-24T04:54:13.420Z,3.68
2023-02-24T04:55:13.399Z,3.68
2023-02-24T04:56:13.418Z,3.68
2023-02-24T04:57:13.364Z,3.68
2023-02-24T04:58:13.359Z,3.69
2023-02-24T04:59:13.358Z,3.70
2023-02-24T05:00:13.342Z,3.69
2023-02-24T05:01:13.371Z,3.69
2023-02-24T05:02:13.332Z,3.69
2023-02-24T05:03:13.295Z,3.70
2023-02-24T05:04:13.447Z,3.73
2023-02-24T05:05:13.276Z,3.70
2023-02-24T05:06:13.294Z,3.70
2023-02-24T05:07:13.238Z,3.68
2023-02-24T05:08:13.232Z,3.66
2023-02-24T05:09:13.233Z,3.68
2023-02-24T05:10:13.209Z,3.68
2023-02-24T05:11:13.224Z,3.66
2023-02-24T05:12:13.186Z,3.68
2023-02-24T05:13:13.187Z,3.70
2023-02-24T05:14:13.158Z,3.70
2023-02-24T05:15:13.140Z,3.73
2023-02-24T05:16:13.198Z,3.73
2023-02-24T05:17:13.153Z,3.70
2023-02-24T05:18:13.096Z,3.70
2023-02-24T05:19:13.101Z,3.70
2023-02-24T05:20:13.085Z,3.73
2023-02-24T05:21:13.088Z,3.70
2023-02-24T05:22:13.055Z,3.73
2023-02-24T05:23:13.066Z,3.73
2023-02-24T05:24:13.021Z,3.70
2023-02-24T05:25:13.017Z,3.68
2023-02-24T05:26:13.002Z,3.63
2023-02-24T05:27:12.996Z,3.60
2023-02-24T05:28:12.991Z,3.60
2023-02-24T05:29:12.962Z,3.58
2023-02-24T05:30:12.949Z,3.59
2023-02-24T05:31:13.020Z,3.59
2023-02-24T05:32:13.070Z,3.59
2023-02-24T05:33:12.920Z,3.59
2023-02-24T05:34:12.908Z,3.59
2023-02-24T05:35:12.874Z,3.59
2023-02-24T05:36:12.865Z,3.62
2023-02-24T05:37:12.873Z,3.63
2023-02-24T05:38:12.844Z,3.63
2023-02-24T05:39:12.919Z,3.63
2023-02-24T05:40:12.852Z,3.63
2023-02-24T05:41:12.796Z,3.62
2023-02-24T05:42:12.818Z,3.62
2023-02-24T05:43:12.795Z,3.63
2023-02-24T05:44:12.763Z,3.60
2023-02-24T05:45:12.752Z,3.63
2023-02-24T05:46:12.833Z,3.63
2023-02-24T05:47:12.704Z,3.62
2023-02-24T05:48:12.720Z,3.62
2023-02-24T05:49:12.712Z,3.62
2023-02-24T05:50:12.693Z,3.62
2023-02-24T05:51:12.662Z,3.63
2023-02-24T05:52:12.666Z,3.65
2023-02-24T05:53:12.629Z,3.63
2023-02-24T05:54:12.627Z,3.63
2023-02-24T05:55:12.637Z,3.65
2023-02-24T05:56:12.598Z,3.66
2023-02-24T05:57:12.637Z,3.66
2023-02-24T05:58:12.578Z,3.66
2023-02-24T05:59:12.560Z,3.68
2023-02-24T06:00:12.580Z,3.68
2023-02-24T06:01:12.532Z,3.68
2023-02-24T06:02:12.647Z,3.68
2023-02-24T06:03:12.554Z,3.70
2023-02-24T06:04:12.518Z,3.73
2023-02-24T06:05:12.489Z,3.74
2023-02-24T06:06:12.475Z,3.74
2023-02-24T06:07:12.506Z,3.76
2023-02-24T06:08:12.454Z,3.77
2023-02-24T06:09:12.425Z,3.77
2023-02-24T06:10:12.414Z,3.77
2023-02-24T06:11:12.402Z,3.77
2023-02-24T06:12:12.401Z,3.78
2023-02-24T06:13:12.406Z,3.80
2023-02-24T06:14:12.366Z,3.80
2023-02-24T06:15:12.364Z,3.81
2023-02-24T06:16:12.429Z,3.81
2023-02-24T06:17:12.325Z,3.80
2023-02-24T06:18:12.340Z,3.81
2023-02-24T06:19:12.307Z,3.81
2023-02-24T06:20:12.293Z,3.84
2023-02-24T06:21:12.266Z,3.84
2023-02-24T06:22:12.256Z,3.86
2023-02-24T06:23:12.262Z,3.87
2023-02-24T06:24:12.254Z,3.87
2023-02-24T06:25:12.294Z,3.88
2023-02-24T06:26:12.201Z,3.88
2023-02-24T06:27:12.194Z,3.91
2023-02-24T06:28:12.217Z,3.92
2023-02-24T06:29:12.171Z,3.94
2023-02-24T06:30:12.153Z,3.94
2023-02-24T06:31:12.147Z,3.92
2023-02-24T06:32:12.286Z,3.95
2023-02-24T06:33:12.157Z,3.96
2023-02-24T06:34:12.097Z,3.98
2023-02-24T06:35:12.081Z,3.99
2023-02-24T06:36:12.095Z,4.01
2023-02-24T06:37:12.079Z,4.04
2023-02-24T06:38:12.063Z,4.06
2023-02-24T06:39:12.032Z,4.06
2023-02-24T06:40:12.025Z,4.06
2023-02-24T06:41:12.034Z,4.12
2023-02-24T06:42:12.039Z,4.12
2023-02-24T06:43:11.992Z,4.13
2023-02-24T06:44:12.008Z,4.14
2023-02-24T06:45:11.965Z,4.17
2023-02-24T06:46:12.037Z,4.17
2023-02-24T06:47:11.928Z,4.19
2023-02-24T06:48:11.921Z,4.20
2023-02-24T06:49:11.905Z,4.17
2023-02-24T06:50:11.919Z,4.19
2023-02-24T06:51:11.874Z,4.22
2023-02-24T06:52:12.040Z,4.24
2023-02-24T06:53:11.860Z,4.26
2023-02-24T06:54:11.844Z,4.26
2023-02-24T06:55:11.860Z,4.30
2023-02-24T06:56:11.856Z,4.30
2023-02-24T06:57:11.802Z,4.31
2023-02-24T06:58:11.794Z,4.35
2023-02-24T06:59:11.826Z,4.35
2023-02-24T07:00:11.789Z,4.41
2023-02-24T07:01:11.835Z,4.48
2023-02-24T07:02:11.734Z,4.52
2023-02-24T07:03:11.725Z,4.55
2023-02-24T07:04:11.749Z,4.56
2023-02-24T07:05:11.691Z,4.58
2023-02-24T07:06:11.713Z,4.59
2023-02-24T07:07:11.657Z,4.63
2023-02-24T07:08:11.651Z,4.62
2023-02-24T07:09:11.656Z,4.66
2023-02-24T07:10:11.664Z,4.67
2023-02-24T07:11:11.687Z,4.67
2023-02-24T07:12:11.621Z,4.66
2023-02-24T07:13:11.595Z,4.68
2023-02-24T07:14:11.584Z,4.68
2023-02-24T07:15:11.566Z,4.67
2023-02-24T07:16:11.623Z,4.71
2023-02-24T07:17:11.540Z,4.71
2023-02-24T07:18:11.517Z,4.70
2023-02-24T07:19:11.534Z,4.74
2023-02-24T07:20:11.514Z,4.73
2023-02-24T07:21:11.481Z,4.75
2023-02-24T07:22:11.491Z,4.75
2023-02-24T07:23:11.465Z,4.75
2023-02-24T07:24:11.473Z,4.77
2023-02-24T07:25:11.428Z,4.75
2023-02-24T07:26:11.416Z,4.77
2023-02-24T07:27:11.412Z,4.77
2023-02-24T07:28:11.402Z,4.80
2023-02-24T07:29:11.488Z,4.80
2023-02-24T07:30:11.369Z,4.84
2023-02-24T07:31:11.460Z,4.84
2023-02-24T07:32:11.562Z,4.86
2023-02-24T07:33:11.345Z,4.90
2023-02-24T07:34:11.323Z,4.90
2023-02-24T07:35:11.344Z,4.93
2023-02-24T07:36:11.283Z,4.94
2023-02-24T07:37:11.276Z,4.97
2023-02-24T07:38:11.260Z,5.05
2023-02-24T07:39:11.254Z,5.07
2023-02-24T07:40:11.269Z,5.08
2023-02-24T07:41:11.386Z,5.12
2023-02-24T07:42:11.223Z,5.15
2023-02-24T07:43:11.184Z,5.17
2023-02-24T07:44:11.180Z,5.21
2023-02-24T07:45:11.271Z,5.25
2023-02-24T07:46:11.178Z,5.28
2023-02-24T07:47:11.177Z,5.32
2023-02-24T07:48:11.121Z,5.35
2023-02-24T07:49:11.117Z,5.36
2023-02-24T07:50:11.090Z,5.38
2023-02-24T07:51:11.091Z,5.38
2023-02-24T07:52:11.118Z,5.41
2023-02-24T07:53:11.052Z,5.43
2023-02-24T07:54:11.056Z,5.47
2023-02-24T07:55:11.056Z,5.50
2023-02-24T07:56:11.021Z,5.53
2023-02-24T07:57:11.034Z,5.54
2023-02-24T07:58:10.988Z,5.57
2023-02-24T07:59:11.040Z,5.59
2023-02-24T08:00:13.139Z,5.64
2023-02-24T08:01:10.964Z,5.65
2023-02-24T08:02:11.067Z,5.68
2023-02-24T08:03:10.939Z,5.71
2023-02-24T08:04:10.913Z,5.72
2023-02-24T08:05:10.961Z,5.79
2023-02-24T08:06:10.895Z,5.80
2023-02-24T08:07:10.905Z,5.84
2023-02-24T08:08:10.860Z,5.89
2023-02-24T08:09:10.848Z,5.91
2023-02-24T08:10:10.862Z,5.97
2023-02-24T08:11:10.819Z,5.98
2023-02-24T08:12:10.803Z,6.01
2023-02-24T08:13:10.788Z,6.05
2023-02-24T08:14:10.785Z,6.08
2023-02-24T08:15:10.789Z,6.11
2023-02-24T08:16:10.836Z,6.16
2023-02-24T08:17:10.729Z,6.20
2023-02-24T08:18:10.732Z,6.26
2023-02-24T08:19:10.723Z,6.30
2023-02-24T08:20:10.721Z,6.35
2023-02-24T08:21:10.689Z,6.36
2023-02-24T08:22:10.809Z,6.39
2023-02-24T08:23:10.690Z,6.42
2023-02-24T08:24:10.666Z,6.45
2023-02-24T08:25:10.648Z,6.46
2023-02-24T08:26:10.684Z,6.49
2023-02-24T08:27:10.614Z,6.54
2023-02-24T08:28:10.623Z,6.54
2023-02-24T08:29:10.583Z,6.56
2023-02-24T08:30:10.572Z,6.60
2023-02-24T08:31:10.839Z,6.62
2023-02-24T08:32:10.710Z,6.66
2023-02-24T08:33:10.524Z,6.69
2023-02-24T08:34:10.514Z,6.75
2023-02-24T08:35:10.513Z,6.77
2023-02-24T08:36:10.522Z,6.82
2023-02-24T08:37:10.478Z,6.87
2023-02-24T08:38:10.475Z,6.89
2023-02-24T08:39:10.500Z,6.99
2023-02-24T08:40:10.454Z,7.05
2023-02-24T08:41:10.444Z,7.14
2023-02-24T08:42:10.418Z,7.18
2023-02-24T08:43:10.407Z,7.28
2023-02-24T08:44:10.430Z,7.33
2023-02-24T08:45:10.373Z,7.38
2023-02-24T08:46:10.407Z,7.43
2023-02-24T08:47:10.352Z,7.45
2023-02-24T08:48:10.339Z,7.50
2023-02-24T08:49:10.335Z,7.56
2023-02-24T08:50:10.316Z,7.58
2023-02-24T08:51:10.306Z,7.61
2023-02-24T08:52:10.328Z,7.69
2023-02-24T08:53:10.278Z,7.75
2023-02-24T08:54:10.250Z,7.80
2023-02-24T08:55:10.326Z,7.87
2023-02-24T08:56:10.238Z,7.91
2023-02-24T08:57:10.228Z,7.95
2023-02-24T08:58:10.201Z,8.00
2023-02-24T08:59:10.217Z,8.05
2023-02-24T09:00:10.203Z,8.08
2023-02-24T09:01:10.195Z,8.13
2023-02-24T09:02:10.149Z,8.24
2023-02-24T09:03:10.133Z,8.30
2023-02-24T09:04:10.113Z,8.44
2023-02-24T09:05:13.084Z,8.49
2023-02-24T09:06:10.102Z,8.56
2023-02-24T09:07:11.883Z,8.63
2023-02-24T09:08:10.061Z,8.70
2023-02-24T09:09:10.108Z,8.74
2023-02-24T09:10:10.064Z,8.82
2023-02-24T09:11:10.032Z,8.92
2023-02-24T09:12:10.028Z,9.00
2023-02-24T09:13:10.009Z,9.10
2023-02-24T09:14:21.126Z,9.18
2023-02-24T09:15:10.020Z,9.28
2023-02-24T09:16:09.990Z,9.28
2023-02-24T09:17:09.960Z,9.37
2023-02-24T09:18:09.939Z,9.41
2023-02-24T09:19:09.925Z,9.44
2023-02-24T09:20:09.934Z,9.54
2023-02-24T09:21:09.911Z,9.62
2023-02-24T09:22:16.547Z,9.66
2023-02-24T09:23:09.881Z,9.72
2023-02-24T09:24:09.888Z,9.72
2023-02-24T09:25:09.837Z,9.68
2023-02-24T09:26:09.851Z,9.68
2023-02-24T09:27:09.827Z,9.68
2023-02-24T09:28:09.829Z,9.68
2023-02-24T09:29:09.789Z,9.66
2023-02-24T09:30:09.788Z,9.66
2023-02-24T09:31:09.929Z,9.69
2023-02-24T09:32:09.887Z,9.68
2023-02-24T09:33:09.964Z,9.68
2023-02-24T09:34:09.727Z,9.68
2023-02-24T09:35:09.711Z,9.69
2023-02-24T09:36:10.084Z,9.72
2023-02-24T09:37:09.692Z,9.72
2023-02-24T09:38:09.721Z,9.68
2023-02-24T09:39:09.698Z,9.68
2023-02-24T09:40:09.639Z,9.68
2023-02-24T09:41:18.498Z,9.68
2023-02-24T09:42:09.626Z,9.69
2023-02-24T09:43:09.596Z,9.69
2023-02-24T09:44:09.594Z,9.72
2023-02-24T09:45:09.593Z,9.72
2023-02-24T09:46:09.669Z,9.69
2023-02-24T09:47:09.561Z,9.72
2023-02-24T09:48:09.532Z,9.72
2023-02-24T09:49:09.525Z,9.73
2023-02-24T09:50:09.512Z,9.74
2023-02-24T09:51:09.511Z,9.79
2023-02-24T09:52:09.502Z,9.83
2023-02-24T09:53:11.469Z,9.89
2023-02-24T09:54:09.455Z,9.94
2023-02-24T09:55:09.435Z,9.97
2023-02-24T09:56:09.503Z,10.02
2023-02-24T09:57:09.571Z,10.13
2023-02-24T09:58:09.424Z,10.20
2023-02-24T09:59:09.394Z,10.28
2023-02-24T10:00:09.400Z,10.35
2023-02-24T10:01:09.425Z,10.44
2023-02-24T10:02:09.414Z,10.53
2023-02-24T10:03:09.375Z,10.56
2023-02-24T10:04:20.046Z,10.57
2023-02-24T10:05:09.316Z,10.60
2023-02-24T10:06:09.299Z,10.63
2023-02-24T10:07:09.282Z,10.68
2023-02-24T10:08:09.289Z,10.72
2023-02-24T10:09:09.254Z,10.79
2023-02-24T10:10:09.248Z,10.90
2023-02-24T10:11:09.272Z,11.04
2023-02-24T10:12:09.208Z,11.12
2023-02-24T10:13:09.198Z,11.22
2023-02-24T10:14:09.213Z,11.29
2023-02-24T10:15:09.177Z,11.32
2023-02-24T10:16:09.167Z,11.35
2023-02-24T10:17:09.184Z,11.40
2023-02-24T10:18:09.261Z,11.44
2023-02-24T10:19:09.156Z,11.47
2023-02-24T10:20:09.101Z,11.52
2023-02-24T10:21:09.150Z,11.63
2023-02-24T10:22:09.075Z,11.72
2023-02-24T10:23:09.080Z,11.84
2023-02-24T10:24:09.048Z,11.97
2023-02-24T10:25:09.046Z,12.00
2023-02-24T10:26:09.031Z,12.07
2023-02-24T10:27:16.338Z,12.12
2023-02-24T10:28:09.026Z,12.21
2023-02-24T10:29:09.186Z,12.29
2023-02-24T10:30:08.972Z,12.36
2023-02-24T10:31:09.076Z,12.40
2023-02-24T10:32:09.212Z,12.46
2023-02-24T10:33:08.962Z,12.47
2023-02-24T10:34:08.930Z,12.50
2023-02-24T10:35:08.940Z,12.55
2023-02-24T10:36:08.902Z,12.64
2023-02-24T10:37:10.362Z,12.75
2023-02-24T10:38:08.865Z,12.83
2023-02-24T10:39:08.886Z,12.90
2023-02-24T10:40:08.839Z,12.86
2023-02-24T10:41:08.814Z,12.87
2023-02-24T10:42:08.856Z,12.87
2023-02-24T10:43:08.792Z,12.93
2023-02-24T10:44:08.833Z,12.97
2023-02-24T10:45:09.827Z,13.03
2023-02-24T10:46:08.845Z,13.11
2023-02-24T10:47:08.754Z,13.19
2023-02-24T10:48:11.557Z,13.33
2023-02-24T10:49:08.736Z,13.50
2023-02-24T10:50:08.708Z,13.67
2023-02-24T10:51:08.697Z,13.78
2023-02-24T10:52:08.692Z,13.90
2023-02-24T10:53:08.666Z,13.96
2023-02-24T10:54:08.680Z,14.07
2023-02-24T10:55:08.652Z,14.18
2023-02-24T10:56:08.626Z,14.28
2023-02-24T10:57:08.607Z,14.40
2023-02-24T10:58:08.598Z,14.51
2023-02-24T10:59:08.596Z,14.68
2023-02-24T11:00:08.602Z,14.91
2023-02-24T11:01:08.568Z,15.10
2023-02-24T11:02:08.562Z,15.25
2023-02-24T11:03:08.579Z,15.27
2023-02-24T11:04:08.523Z,15.35
2023-02-24T11:05:08.549Z,15.31
2023-02-24T11:06:08.492Z,15.37
2023-02-24T11:07:08.480Z,15.43
2023-02-24T11:08:08.456Z,15.43
2023-02-24T11:09:08.452Z,15.42
2023-02-24T11:10:10.409Z,15.42
2023-02-24T11:11:08.436Z,15.31
2023-02-24T11:12:08.431Z,15.21
2023-02-24T11:13:10.354Z,15.22
2023-02-24T11:14:08.383Z,15.22
2023-02-24T11:15:08.403Z,15.24
2023-02-24T11:16:08.440Z,15.33
2023-02-24T11:17:08.337Z,15.35
2023-02-24T11:18:08.335Z,15.47
2023-02-24T11:19:08.313Z,15.62
2023-02-24T11:20:08.321Z,15.75
2023-02-24T11:21:08.339Z,15.84
2023-02-24T11:22:08.279Z,15.88
2023-02-24T11:23:08.257Z,15.75
2023-02-24T11:24:08.242Z,15.57
2023-02-24T11:25:08.225Z,15.37
2023-02-24T11:26:08.234Z,15.21
2023-02-24T11:27:08.457Z,15.06
2023-02-24T11:28:08.199Z,14.99
2023-02-24T11:29:08.181Z,14.92
2023-02-24T11:30:08.164Z,15.06
2023-02-24T11:31:08.442Z,15.17
2023-02-24T11:32:08.298Z,15.37
2023-02-24T11:33:08.122Z,15.52
2023-02-24T11:34:08.142Z,15.59
2023-02-24T11:35:08.181Z,15.57
2023-02-24T11:36:08.654Z,15.57
2023-02-24T11:37:08.556Z,15.57
2023-02-24T11:38:08.084Z,15.61
2023-02-24T11:39:17.756Z,15.67
2023-02-24T11:40:08.234Z,15.67
2023-02-24T11:41:08.057Z,15.70
2023-02-24T11:42:08.010Z,15.82
2023-02-24T11:43:08.408Z,15.83
2023-02-24T11:44:08.331Z,15.83
2023-02-24T11:45:07.968Z,15.82
2023-02-24T11:46:08.517Z,15.83
2023-02-24T11:47:07.951Z,15.91
2023-02-24T11:48:07.964Z,16.00
2023-02-24T11:49:07.909Z,16.05
2023-02-24T11:50:07.924Z,16.01
2023-02-24T11:51:07.879Z,16.09
2023-02-24T11:52:07.874Z,15.92
2023-02-24T11:53:07.856Z,15.84
2023-02-24T11:54:07.847Z,15.70
2023-02-24T11:55:07.854Z,15.59
2023-02-24T11:56:08.136Z,15.49
2023-02-24T11:57:07.796Z,15.39
2023-02-24T11:58:07.797Z,15.25
2023-02-24T11:59:07.779Z,15.09
2023-02-24T12:00:07.801Z,14.97
2023-02-24T12:01:07.747Z,14.84
2023-02-24T12:02:07.739Z,14.77
2023-02-24T12:03:07.765Z,14.68
2023-02-24T12:04:07.729Z,14.63
2023-02-24T12:05:07.702Z,14.50
2023-02-24T12:06:07.772Z,14.30
2023-02-24T12:07:07.670Z,14.23
2023-02-24T12:08:07.657Z,14.18
2023-02-24T12:09:07.647Z,14.18
2023-02-24T12:10:16.749Z,14.10
2023-02-24T12:11:07.623Z,14.04
2023-02-24T12:12:07.597Z,13.96
2023-02-24T12:13:08.179Z,13.93
2023-02-24T12:14:07.590Z,13.90
2023-02-24T12:15:07.578Z,13.90
2023-02-24T12:16:07.642Z,13.83
2023-02-24T12:17:07.557Z,13.81
2023-02-24T12:18:07.529Z,13.78
2023-02-24T12:19:07.515Z,13.77
2023-02-24T12:20:07.526Z,13.72
2023-02-24T12:21:07.493Z,13.70
2023-02-24T12:22:07.496Z,13.70
2023-02-24T12:23:07.444Z,13.67
2023-02-24T12:24:08.929Z,13.62
2023-02-24T12:25:07.440Z,13.63
2023-02-24T12:26:07.437Z,13.62
2023-02-24T12:27:07.440Z,13.56
2023-02-24T12:28:07.403Z,13.50
2023-02-24T12:29:07.365Z,13.44
2023-02-24T12:30:07.351Z,13.42
2023-02-24T12:31:07.511Z,13.41
2023-02-24T12:32:07.438Z,13.42
2023-02-24T12:33:07.412Z,13.42
2023-02-24T12:34:07.310Z,13.41
2023-02-24T12:35:07.340Z,13.38
2023-02-24T12:36:07.288Z,13.35
2023-02-24T12:37:07.251Z,13.33
2023-02-24T12:38:07.280Z,13.35
2023-02-24T12:39:07.235Z,13.28
2023-02-24T12:40:07.216Z,13.28
2023-02-24T12:41:07.215Z,13.30
2023-02-24T12:42:07.211Z,13.30
2023-02-24T12:43:07.200Z,13.28
2023-02-24T12:44:07.180Z,13.25
2023-02-24T12:45:07.148Z,13.25
2023-02-24T12:46:07.249Z,13.20
2023-02-24T12:47:07.130Z,13.18
2023-02-24T12:48:07.146Z,13.22
2023-02-24T12:49:07.097Z,13.18
2023-02-24T12:50:07.073Z,13.13
2023-02-24T12:51:07.073Z,13.12
2023-02-24T12:52:07.057Z,13.09
2023-02-24T12:53:07.087Z,13.05
2023-02-24T12:54:07.043Z,13.03
2023-02-24T12:55:07.005Z,13.04
2023-02-24T12:56:07.005Z,13.03
2023-02-24T12:57:07.008Z,13.01
2023-02-24T12:58:06.987Z,13.01
2023-02-24T12:59:07.026Z,13.00
2023-02-24T13:00:06.961Z,13.00
2023-02-24T13:01:07.046Z,13.01
2023-02-24T13:02:06.974Z,13.03
2023-02-24T13:03:06.913Z,13.03
2023-02-24T13:04:06.929Z,13.00
2023-02-24T13:05:09.282Z,12.97
2023-02-24T13:06:06.907Z,12.97
2023-02-24T13:07:06.856Z,12.98
2023-02-24T13:08:06.848Z,12.94
2023-02-24T13:09:06.865Z,12.94
2023-02-24T13:10:06.816Z,12.94
2023-02-24T13:11:06.806Z,12.94